Terminal Aerodrome Forecast
Issued by NWS Anchorage, AK

Home | Current Version | Previous Version | Text Only | Print | Product List | Glossary On
Versions: 1 2 3 4 5 6 7 8 9 10 11 12 13 14 15 16 17 18
000
FTAK31 PANC 082339
TAFANC
TAF
PANC 082339Z 0900/1006 02010KT P6SM SCT080 BKN180
     FM090500 36008KT 6SM -SHSN SCT025 OVC040
     FM091200 36005KT P6SM VCSH SCT040 BKN060
     FM092000 01007KT P6SM SCT060 BKN150=

USA.gov is the U.S. government's official web portal to all federal, state and local government web resources and services.